sensor_id;sensor_type;location;lat;lon;timestamp;temperature;humidity
3275;DHT22;1649;53.672;10.064;2022-09-13T00:01:08;16.10;99.90
3275;DHT22;1649;53.672;10.064;2022-09-13T00:03:34;16.10;99.90
3275;DHT22;1649;53.672;10.064;2022-09-13T00:06:11;16.10;99.90
3275;DHT22;1649;53.672;10.064;2022-09-13T00:08:37;16.10;99.90
3275;DHT22;1649;53.672;10.064;2022-09-13T00:11:03;16.10;99.90
3275;DHT22;1649;53.672;10.064;2022-09-13T00:13:29;16.10;99.90
3275;DHT22;1649;53.672;10.064;2022-09-13T00:15:54;16.10;99.90
3275;DHT22;1649;53.672;10.064;2022-09-13T00:18:20;16.20;99.90
3275;DHT22;1649;53.672;10.064;2022-09-13T00:20:46;16.20;99.90
3275;DHT22;1649;53.672;10.064;2022-09-13T00:23:12;16.20;99.90
3275;DHT22;1649;53.672;10.064;2022-09-13T00:25:38;16.20;99.90
3275;DHT22;1649;53.672;10.064;2022-09-13T00:28:04;16.20;99.90
3275;DHT22;1649;53.672;10.064;2022-09-13T00:30:30;16.20;99.90
3275;DHT22;1649;53.672;10.064;2022-09-13T00:32:55;16.30;99.90
3275;DHT22;1649;53.672;10.064;2022-09-13T00:35:21;16.20;99.90
3275;DHT22;1649;53.672;10.064;2022-09-13T00:37:46;16.00;99.90
3275;DHT22;1649;53.672;10.064;2022-09-13T00:40:12;15.70;99.90
3275;DHT22;1649;53.672;10.064;2022-09-13T00:42:37;15.50;99.90
3275;DHT22;1649;53.672;10.064;2022-09-13T00:50:02;15.00;99.90
3275;DHT22;1649;53.672;10.064;2022-09-13T00:52:31;14.90;99.90
3275;DHT22;1649;53.672;10.064;2022-09-13T00:55:02;14.90;99.90
3275;DHT22;1649;53.672;10.064;2022-09-13T00:57:31;14.80;99.90
3275;DHT22;1649;53.672;10.064;2022-09-13T01:00:05;14.80;99.90
3275;DHT22;1649;53.672;10.064;2022-09-13T01:02:37;14.80;99.90
3275;DHT22;1649;53.672;10.064;2022-09-13T01:05:03;14.70;99.90
3275;DHT22;1649;53.672;10.064;2022-09-13T01:07:28;14.70;99.90
3275;DHT22;1649;53.672;10.064;2022-09-13T01:09:54;14.70;99.90
3275;DHT22;1649;53.672;10.064;2022-09-13T01:15:05;14.80;99.90
3275;DHT22;1649;53.672;10.064;2022-09-13T01:17:33;14.80;99.90
3275;DHT22;1649;53.672;10.064;2022-09-13T01:19:59;14.80;99.90
3275;DHT22;1649;53.672;10.064;2022-09-13T01:23:02;14.80;99.90
3275;DHT22;1649;53.672;10.064;2022-09-13T01:26:10;14.90;99.90
3275;DHT22;1649;53.672;10.064;2022-09-13T01:31:32;15.00;99.90
3275;DHT22;1649;53.672;10.064;2022-09-13T01:34:22;15.00;99.90
3275;DHT22;1649;53.672;10.064;2022-09-13T01:37:54;14.90;99.90
3275;DHT22;1649;53.672;10.064;2022-09-13T01:40:04;14.90;99.90
3275;DHT22;1649;53.672;10.064;2022-09-13T01:51:10;14.90;99.90
3275;DHT22;1649;53.672;10.064;2022-09-13T01:53:50;14.90;99.90
3275;DHT22;1649;53.672;10.064;2022-09-13T01:56:38;14.90;99.90
3275;DHT22;1649;53.672;10.064;2022-09-13T02:04:43;15.00;99.90
3275;DHT22;1649;53.672;10.064;2022-09-13T02:07:18;15.00;99.90
3275;DHT22;1649;53.672;10.064;2022-09-13T02:09:49;15.00;99.90
3275;DHT22;1649;53.672;10.064;2022-09-13T02:12:20;15.00;99.90
3275;DHT22;1649;53.672;10.064;2022-09-13T02:14:56;15.00;99.90
3275;DHT22;1649;53.672;10.064;2022-09-13T02:17:26;15.10;99.90
3275;DHT22;1649;53.672;10.064;2022-09-13T02:19:58;15.10;99.90
3275;DHT22;1649;53.672;10.064;2022-09-13T02:22:34;15.10;99.90
3275;DHT22;1649;53.672;10.064;2022-09-13T02:25:07;15.20;99.90
3275;DHT22;1649;53.672;10.064;2022-09-13T02:27:36;15.20;99.90
3275;DHT22;1649;53.672;10.064;2022-09-13T02:30:07;15.30;99.90
3275;DHT22;1649;53.672;10.064;2022-09-13T02:32:39;15.20;99.90
3275;DHT22;1649;53.672;10.064;2022-09-13T02:35:15;15.20;99.90
3275;DHT22;1649;53.672;10.064;2022-09-13T02:37:48;15.30;99.90
3275;DHT22;1649;53.672;10.064;2022-09-13T02:40:17;15.30;99.90
3275;DHT22;1649;53.672;10.064;2022-09-13T02:43:36;15.30;99.90
3275;DHT22;1649;53.672;10.064;2022-09-13T02:45:49;15.30;99.90
3275;DHT22;1649;53.672;10.064;2022-09-13T02:48:39;15.30;99.90
3275;DHT22;1649;53.672;10.064;2022-09-13T02:51:20;15.30;99.90
3275;DHT22;1649;53.672;10.064;2022-09-13T02:54:03;15.30;99.90
3275;DHT22;1649;53.672;10.064;2022-09-13T02:57:04;15.30;99.90
3275;DHT22;1649;53.672;10.064;2022-09-13T02:59:30;15.30;99.90
3275;DHT22;1649;53.672;10.064;2022-09-13T03:02:07;15.30;99.90
3275;DHT22;1649;53.672;10.064;2022-09-13T03:04:34;15.30;99.90
3275;DHT22;1649;53.672;10.064;2022-09-13T03:07:00;15.30;99.90
3275;DHT22;1649;53.672;10.064;2022-09-13T03:09:28;15.30;99.90
3275;DHT22;1649;53.672;10.064;2022-09-13T03:17:59;15.30;99.90
3275;DHT22;1649;53.672;10.064;2022-09-13T03:20:40;15.30;99.90
3275;DHT22;1649;53.672;10.064;2022-09-13T03:23:46;15.30;99.90
3275;DHT22;1649;53.672;10.064;2022-09-13T03:26:59;15.30;99.90
3275;DHT22;1649;53.672;10.064;2022-09-13T03:35:12;15.30;99.90
3275;DHT22;1649;53.672;10.064;2022-09-13T03:38:00;15.30;99.90
3275;DHT22;1649;53.672;10.064;2022-09-13T03:43:26;15.30;99.90
3275;DHT22;1649;53.672;10.064;2022-09-13T03:46:03;15.40;99.90
3275;DHT22;1649;53.672;10.064;2022-09-13T03:48:31;15.40;99.90
3275;DHT22;1649;53.672;10.064;2022-09-13T03:51:00;15.40;99.90
3275;DHT22;1649;53.672;10.064;2022-09-13T03:53:27;15.40;99.90
3275;DHT22;1649;53.672;10.064;2022-09-13T03:55:54;15.50;99.90
3275;DHT22;1649;53.672;10.064;2022-09-13T03:58:20;15.50;99.90
3275;DHT22;1649;53.672;10.064;2022-09-13T04:00:46;15.50;99.90
3275;DHT22;1649;53.672;10.064;2022-09-13T04:03:12;15.50;99.90
3275;DHT22;1649;53.672;10.064;2022-09-13T04:05:38;15.50;99.90
3275;DHT22;1649;53.672;10.064;2022-09-13T04:08:05;15.50;99.90
3275;DHT22;1649;53.672;10.064;2022-09-13T04:10:33;15.50;99.90
3275;DHT22;1649;53.672;10.064;2022-09-13T04:12:58;15.50;99.90
3275;DHT22;1649;53.672;10.064;2022-09-13T04:15:25;15.60;99.90
3275;DHT22;1649;53.672;10.064;2022-09-13T04:17:50;15.50;99.90
3275;DHT22;1649;53.672;10.064;2022-09-13T04:20:16;15.60;99.90
3275;DHT22;1649;53.672;10.064;2022-09-13T04:22:42;15.50;99.90
3275;DHT22;1649;53.672;10.064;2022-09-13T04:25:08;15.40;99.90
3275;DHT22;1649;53.672;10.064;2022-09-13T04:27:33;15.30;99.90
3275;DHT22;1649;53.672;10.064;2022-09-13T04:30:00;15.30;99.90
3275;DHT22;1649;53.672;10.064;2022-09-13T04:32:26;15.30;99.90
3275;DHT22;1649;53.672;10.064;2022-09-13T04:34:52;15.20;99.90
3275;DHT22;1649;53.672;10.064;2022-09-13T04:37:17;15.20;99.90
3275;DHT22;1649;53.672;10.064;2022-09-13T04:39:42;15.20;99.90
3275;DHT22;1649;53.672;10.064;2022-09-13T04:42:08;15.20;99.90
3275;DHT22;1649;53.672;10.064;2022-09-13T04:44:35;15.10;99.90
3275;DHT22;1649;53.672;10.064;2022-09-13T04:47:01;15.10;99.90
3275;DHT22;1649;53.672;10.064;2022-09-13T04:49:27;15.10;99.90
3275;DHT22;1649;53.672;10.064;2022-09-13T04:51:52;15.10;99.90
3275;DHT22;1649;53.672;10.064;2022-09-13T04:54:18;15.10;99.90
3275;DHT22;1649;53.672;10.064;2022-09-13T04:56:43;15.10;99.90
3275;DHT22;1649;53.672;10.064;2022-09-13T04:59:10;15.10;99.90
3275;DHT22;1649;53.672;10.064;2022-09-13T05:01:36;15.10;99.90
3275;DHT22;1649;53.672;10.064;2022-09-13T05:04:03;15.20;99.90
3275;DHT22;1649;53.672;10.064;2022-09-13T05:06:28;15.20;99.90
3275;DHT22;1649;53.672;10.064;2022-09-13T05:08:55;15.20;99.90
3275;DHT22;1649;53.672;10.064;2022-09-13T05:11:22;15.20;99.90
3275;DHT22;1649;53.672;10.064;2022-09-13T05:13:52;15.20;99.90
3275;DHT22;1649;53.672;10.064;2022-09-13T05:16:21;15.20;99.90
3275;DHT22;1649;53.672;10.064;2022-09-13T05:18:46;15.30;99.90
3275;DHT22;1649;53.672;10.064;2022-09-13T05:21:12;15.30;99.90
3275;DHT22;1649;53.672;10.064;2022-09-13T05:23:38;15.30;99.90
3275;DHT22;1649;53.672;10.064;2022-09-13T05:26:04;15.40;99.90
3275;DHT22;1649;53.672;10.064;2022-09-13T05:28:32;15.40;99.90
3275;DHT22;1649;53.672;10.064;2022-09-13T05:31:06;15.40;99.90
3275;DHT22;1649;53.672;10.064;2022-09-13T05:33:34;15.40;99.90
3275;DHT22;1649;53.672;10.064;2022-09-13T05:36:00;15.40;99.90
3275;DHT22;1649;53.672;10.064;2022-09-13T05:38:26;15.50;99.90
3275;DHT22;1649;53.672;10.064;2022-09-13T05:40:56;15.60;99.90
3275;DHT22;1649;53.672;10.064;2022-09-13T05:43:27;15.60;99.90
3275;DHT22;1649;53.672;10.064;2022-09-13T05:46:01;15.60;99.90
3275;DHT22;1649;53.672;10.064;2022-09-13T05:48:27;15.60;99.90
3275;DHT22;1649;53.672;10.064;2022-09-13T05:50:52;15.60;99.90
3275;DHT22;1649;53.672;10.064;2022-09-13T05:53:18;15.60;99.90
3275;DHT22;1649;53.672;10.064;2022-09-13T05:55:43;15.70;99.90
3275;DHT22;1649;53.672;10.064;2022-09-13T05:58:09;15.70;99.90
3275;DHT22;1649;53.672;10.064;2022-09-13T06:00:34;15.80;99.90
3275;DHT22;1649;53.672;10.064;2022-09-13T06:03:00;15.90;99.90
3275;DHT22;1649;53.672;10.064;2022-09-13T06:05:25;15.90;99.90
3275;DHT22;1649;53.672;10.064;2022-09-13T06:07:51;16.00;99.90
3275;DHT22;1649;53.672;10.064;2022-09-13T06:10:16;16.10;99.90
3275;DHT22;1649;53.672;10.064;2022-09-13T06:12:42;16.10;99.90
3275;DHT22;1649;53.672;10.064;2022-09-13T06:15:08;16.20;99.90
3275;DHT22;1649;53.672;10.064;2022-09-13T06:17:33;16.20;99.90
3275;DHT22;1649;53.672;10.064;2022-09-13T06:19:59;16.10;99.90
3275;DHT22;1649;53.672;10.064;2022-09-13T06:22:24;16.10;99.90
3275;DHT22;1649;53.672;10.064;2022-09-13T06:24:50;16.20;99.90
3275;DHT22;1649;53.672;10.064;2022-09-13T06:27:15;16.20;99.90
3275;DHT22;1649;53.672;10.064;2022-09-13T06:29:40;16.30;99.90
3275;DHT22;1649;53.672;10.064;2022-09-13T06:32:06;16.30;99.90
3275;DHT22;1649;53.672;10.064;2022-09-13T06:34:31;16.40;99.90
3275;DHT22;1649;53.672;10.064;2022-09-13T06:36:58;16.40;99.90
3275;DHT22;1649;53.672;10.064;2022-09-13T06:39:23;16.50;99.90
3275;DHT22;1649;53.672;10.064;2022-09-13T06:41:49;16.50;99.90
3275;DHT22;1649;53.672;10.064;2022-09-13T06:44:14;16.50;99.90
3275;DHT22;1649;53.672;10.064;2022-09-13T06:46:40;16.70;99.90
3275;DHT22;1649;53.672;10.064;2022-09-13T06:49:06;16.80;99.90
3275;DHT22;1649;53.672;10.064;2022-09-13T06:51:33;16.90;99.90
3275;DHT22;1649;53.672;10.064;2022-09-13T06:54:00;17.00;99.90
3275;DHT22;1649;53.672;10.064;2022-09-13T06:56:28;17.20;99.90
3275;DHT22;1649;53.672;10.064;2022-09-13T06:58:57;17.30;99.90
3275;DHT22;1649;53.672;10.064;2022-09-13T07:01:28;17.40;99.90
3275;DHT22;1649;53.672;10.064;2022-09-13T07:04:05;17.50;99.90
3275;DHT22;1649;53.672;10.064;2022-09-13T07:06:39;17.60;99.90
3275;DHT22;1649;53.672;10.064;2022-09-13T07:09:07;17.70;99.90
3275;DHT22;1649;53.672;10.064;2022-09-13T07:11:35;17.90;99.90
3275;DHT22;1649;53.672;10.064;2022-09-13T07:14:01;17.90;99.90
3275;DHT22;1649;53.672;10.064;2022-09-13T07:16:29;17.80;99.90
3275;DHT22;1649;53.672;10.064;2022-09-13T07:18:57;17.80;99.90
3275;DHT22;1649;53.672;10.064;2022-09-13T07:21:24;17.80;99.90
3275;DHT22;1649;53.672;10.064;2022-09-13T07:23:51;17.70;99.90
3275;DHT22;1649;53.672;10.064;2022-09-13T07:26:17;17.60;99.90
3275;DHT22;1649;53.672;10.064;2022-09-13T07:28:46;17.60;99.90
3275;DHT22;1649;53.672;10.064;2022-09-13T07:33:38;17.60;99.90
3275;DHT22;1649;53.672;10.064;2022-09-13T07:36:05;17.60;99.90
3275;DHT22;1649;53.672;10.064;2022-09-13T07:38:32;17.50;99.90
3275;DHT22;1649;53.672;10.064;2022-09-13T07:40:59;17.50;99.90
3275;DHT22;1649;53.672;10.064;2022-09-13T07:43:25;17.50;99.90
3275;DHT22;1649;53.672;10.064;2022-09-13T07:46:04;17.50;99.90
3275;DHT22;1649;53.672;10.064;2022-09-13T07:48:32;17.60;99.90
3275;DHT22;1649;53.672;10.064;2022-09-13T07:50:59;17.60;99.90
3275;DHT22;1649;53.672;10.064;2022-09-13T07:53:25;17.80;99.90
3275;DHT22;1649;53.672;10.064;2022-09-13T07:55:50;18.00;99.90
3275;DHT22;1649;53.672;10.064;2022-09-13T07:58:16;18.10;99.90
3275;DHT22;1649;53.672;10.064;2022-09-13T08:00:43;18.20;99.90
3275;DHT22;1649;53.672;10.064;2022-09-13T08:03:10;18.30;99.90
3275;DHT22;1649;53.672;10.064;2022-09-13T08:05:39;18.30;99.90
3275;DHT22;1649;53.672;10.064;2022-09-13T08:08:04;18.30;99.90
3275;DHT22;1649;53.672;10.064;2022-09-13T08:10:32;18.30;99.90
3275;DHT22;1649;53.672;10.064;2022-09-13T08:12:57;18.40;99.90
3275;DHT22;1649;53.672;10.064;2022-09-13T08:15:23;18.50;99.90
3275;DHT22;1649;53.672;10.064;2022-09-13T08:17:48;18.60;99.90
3275;DHT22;1649;53.672;10.064;2022-09-13T08:20:14;18.90;99.90
3275;DHT22;1649;53.672;10.064;2022-09-13T08:22:39;19.10;99.90
3275;DHT22;1649;53.672;10.064;2022-09-13T08:25:05;19.20;99.90
3275;DHT22;1649;53.672;10.064;2022-09-13T08:27:30;19.30;99.90
3275;DHT22;1649;53.672;10.064;2022-09-13T08:29:56;19.20;99.90
3275;DHT22;1649;53.672;10.064;2022-09-13T08:32:21;19.10;99.90
3275;DHT22;1649;53.672;10.064;2022-09-13T08:34:47;18.80;99.90
3275;DHT22;1649;53.672;10.064;2022-09-13T08:37:12;18.60;99.90
3275;DHT22;1649;53.672;10.064;2022-09-13T08:39:38;18.40;99.90
3275;DHT22;1649;53.672;10.064;2022-09-13T08:42:23;18.60;99.90
3275;DHT22;1649;53.672;10.064;2022-09-13T08:44:54;18.80;99.90
3275;DHT22;1649;53.672;10.064;2022-09-13T08:47:35;19.20;99.90
3275;DHT22;1649;53.672;10.064;2022-09-13T08:50:11;19.50;99.90
3275;DHT22;1649;53.672;10.064;2022-09-13T08:55:33;20.80;99.90
3275;DHT22;1649;53.672;10.064;2022-09-13T09:04:21;23.80;99.90
3275;DHT22;1649;53.672;10.064;2022-09-13T09:07:05;24.40;99.90
3275;DHT22;1649;53.672;10.064;2022-09-13T09:09:43;24.10;99.90
3275;DHT22;1649;53.672;10.064;2022-09-13T09:14:42;23.70;99.90
3275;DHT22;1649;53.672;10.064;2022-09-13T09:17:17;23.30;99.90
3275;DHT22;1649;53.672;10.064;2022-09-13T09:19:47;22.70;99.90
3275;DHT22;1649;53.672;10.064;2022-09-13T09:22:19;22.40;99.90
3275;DHT22;1649;53.672;10.064;2022-09-13T09:24:49;22.70;99.90
3275;DHT22;1649;53.672;10.064;2022-09-13T09:27:19;22.80;99.90
3275;DHT22;1649;53.672;10.064;2022-09-13T09:29:46;23.40;99.90
3275;DHT22;1649;53.672;10.064;2022-09-13T09:35:17;24.50;98.90
3275;DHT22;1649;53.672;10.064;2022-09-13T09:38:13;23.90;98.80
3275;DHT22;1649;53.672;10.064;2022-09-13T09:40:41;23.40;97.80
3275;DHT22;1649;53.672;10.064;2022-09-13T09:43:29;23.00;98.40
3275;DHT22;1649;53.672;10.064;2022-09-13T09:45:58;23.30;99.90
3275;DHT22;1649;53.672;10.064;2022-09-13T09:48:29;23.30;99.90
3275;DHT22;1649;53.672;10.064;2022-09-13T09:50:57;23.40;99.90
3275;DHT22;1649;53.672;10.064;2022-09-13T09:53:27;23.50;99.90
3275;DHT22;1649;53.672;10.064;2022-09-13T09:56:03;23.30;98.10
3275;DHT22;1649;53.672;10.064;2022-09-13T09:58:37;23.40;97.70
3275;DHT22;1649;53.672;10.064;2022-09-13T10:01:04;23.50;99.90
3275;DHT22;1649;53.672;10.064;2022-09-13T10:03:32;23.90;99.90
3275;DHT22;1649;53.672;10.064;2022-09-13T10:06:11;24.30;98.80
3275;DHT22;1649;53.672;10.064;2022-09-13T10:08:39;23.70;96.50
3275;DHT22;1649;53.672;10.064;2022-09-13T10:11:06;23.40;98.10
3275;DHT22;1649;53.672;10.064;2022-09-13T10:13:33;23.50;99.60
3275;DHT22;1649;53.672;10.064;2022-09-13T10:16:22;23.80;99.60
3275;DHT22;1649;53.672;10.064;2022-09-13T10:18:45;23.90;95.70
3275;DHT22;1649;53.672;10.064;2022-09-13T10:23:46;24.40;96.20
3275;DHT22;1649;53.672;10.064;2022-09-13T10:26:24;24.90;94.60
3275;DHT22;1649;53.672;10.064;2022-09-13T10:29:06;25.10;94.60
3275;DHT22;1649;53.672;10.064;2022-09-13T10:31:38;25.10;94.70
3275;DHT22;1649;53.672;10.064;2022-09-13T10:34:16;25.30;94.50
3275;DHT22;1649;53.672;10.064;2022-09-13T10:36:54;25.50;94.80
3275;DHT22;1649;53.672;10.064;2022-09-13T10:39:22;25.50;95.00
3275;DHT22;1649;53.672;10.064;2022-09-13T10:42:14;26.00;93.30
3275;DHT22;1649;53.672;10.064;2022-09-13T10:44:54;25.90;92.70
3275;DHT22;1649;53.672;10.064;2022-09-13T10:47:24;25.90;93.20
3275;DHT22;1649;53.672;10.064;2022-09-13T10:49:53;25.10;93.70
3275;DHT22;1649;53.672;10.064;2022-09-13T10:52:32;25.00;93.60
3275;DHT22;1649;53.672;10.064;2022-09-13T10:55:27;24.60;93.60
3275;DHT22;1649;53.672;10.064;2022-09-13T11:00:36;24.10;94.60
3275;DHT22;1649;53.672;10.064;2022-09-13T11:06:26;23.40;94.50
3275;DHT22;1649;53.672;10.064;2022-09-13T11:09:16;23.00;95.70
3275;DHT22;1649;53.672;10.064;2022-09-13T11:12:01;22.90;95.90
3275;DHT22;1649;53.672;10.064;2022-09-13T11:14:48;22.90;96.50
3275;DHT22;1649;53.672;10.064;2022-09-13T11:17:58;22.90;95.90
3275;DHT22;1649;53.672;10.064;2022-09-13T11:23:25;23.70;94.90
3275;DHT22;1649;53.672;10.064;2022-09-13T11:26:23;24.20;95.00
3275;DHT22;1649;53.672;10.064;2022-09-13T11:34:54;23.20;93.20
3275;DHT22;1649;53.672;10.064;2022-09-13T11:37:29;22.70;95.20
3275;DHT22;1649;53.672;10.064;2022-09-13T11:43:06;22.40;95.30
3275;DHT22;1649;53.672;10.064;2022-09-13T11:54:01;22.80;94.40
3275;DHT22;1649;53.672;10.064;2022-09-13T11:56:32;22.80;94.50
3275;DHT22;1649;53.672;10.064;2022-09-13T12:01:50;22.60;94.10
3275;DHT22;1649;53.672;10.064;2022-09-13T12:04:22;22.60;94.80
3275;DHT22;1649;53.672;10.064;2022-09-13T12:06:53;22.50;95.00
3275;DHT22;1649;53.672;10.064;2022-09-13T12:09:24;22.50;96.20
3275;DHT22;1649;53.672;10.064;2022-09-13T12:11:58;22.70;96.90
3275;DHT22;1649;53.672;10.064;2022-09-13T12:14:30;22.90;95.00
3275;DHT22;1649;53.672;10.064;2022-09-13T12:17:03;22.90;94.80
3275;DHT22;1649;53.672;10.064;2022-09-13T12:19:43;23.10;94.80
3275;DHT22;1649;53.672;10.064;2022-09-13T12:22:10;23.20;94.70
3275;DHT22;1649;53.672;10.064;2022-09-13T12:24:45;23.40;94.40
3275;DHT22;1649;53.672;10.064;2022-09-13T12:27:22;23.70;93.90
3275;DHT22;1649;53.672;10.064;2022-09-13T12:29:56;23.70;93.40
3275;DHT22;1649;53.672;10.064;2022-09-13T12:32:25;23.40;94.40
3275;DHT22;1649;53.672;10.064;2022-09-13T12:35:08;23.30;93.50
3275;DHT22;1649;53.672;10.064;2022-09-13T12:46:15;23.40;94.30
3275;DHT22;1649;53.672;10.064;2022-09-13T12:57:04;22.40;93.50
3275;DHT22;1649;53.672;10.064;2022-09-13T13:04:55;22.10;94.40
3275;DHT22;1649;53.672;10.064;2022-09-13T13:07:23;22.30;95.20
3275;DHT22;1649;53.672;10.064;2022-09-13T13:09:54;22.00;94.20
3275;DHT22;1649;53.672;10.064;2022-09-13T13:12:35;22.20;95.40
3275;DHT22;1649;53.672;10.064;2022-09-13T13:17:44;22.50;94.40
3275;DHT22;1649;53.672;10.064;2022-09-13T13:23:22;22.30;94.80
3275;DHT22;1649;53.672;10.064;2022-09-13T13:28:50;22.40;96.80
3275;DHT22;1649;53.672;10.064;2022-09-13T13:33:54;22.40;96.40
3275;DHT22;1649;53.672;10.064;2022-09-13T13:42:10;22.40;96.60
3275;DHT22;1649;53.672;10.064;2022-09-13T13:57:25;22.00;98.50
3275;DHT22;1649;53.672;10.064;2022-09-13T14:00:14;22.00;98.50
3275;DHT22;1649;53.672;10.064;2022-09-13T14:05:32;21.90;98.40
3275;DHT22;1649;53.672;10.064;2022-09-13T14:16:26;21.60;98.60
3275;DHT22;1649;53.672;10.064;2022-09-13T14:22:21;21.30;99.60
3275;DHT22;1649;53.672;10.064;2022-09-13T14:24:52;21.10;99.50
3275;DHT22;1649;53.672;10.064;2022-09-13T14:27:23;21.00;99.50
3275;DHT22;1649;53.672;10.064;2022-09-13T14:29:54;21.00;99.00
3275;DHT22;1649;53.672;10.064;2022-09-13T14:32:23;21.00;99.60
3275;DHT22;1649;53.672;10.064;2022-09-13T14:35:26;21.10;98.80
3275;DHT22;1649;53.672;10.064;2022-09-13T14:37:52;21.10;99.80
3275;DHT22;1649;53.672;10.064;2022-09-13T14:40:25;21.10;99.90
3275;DHT22;1649;53.672;10.064;2022-09-13T14:42:52;21.30;98.80
3275;DHT22;1649;53.672;10.064;2022-09-13T14:45:24;21.40;99.50
3275;DHT22;1649;53.672;10.064;2022-09-13T14:48:06;21.30;98.00
3275;DHT22;1649;53.672;10.064;2022-09-13T14:50:36;21.10;99.10
3275;DHT22;1649;53.672;10.064;2022-09-13T14:53:05;21.00;98.10
3275;DHT22;1649;53.672;10.064;2022-09-13T14:55:35;20.90;98.40
3275;DHT22;1649;53.672;10.064;2022-09-13T14:58:04;20.80;98.00
3275;DHT22;1649;53.672;10.064;2022-09-13T15:00:33;20.70;99.10
3275;DHT22;1649;53.672;10.064;2022-09-13T15:03:04;20.80;98.20
3275;DHT22;1649;53.672;10.064;2022-09-13T15:05:35;20.80;99.20
3275;DHT22;1649;53.672;10.064;2022-09-13T15:08:42;20.80;99.10
3275;DHT22;1649;53.672;10.064;2022-09-13T15:11:12;20.70;98.50
3275;DHT22;1649;53.672;10.064;2022-09-13T15:13:40;20.40;98.50
3275;DHT22;1649;53.672;10.064;2022-09-13T15:16:29;20.30;98.40
3275;DHT22;1649;53.672;10.064;2022-09-13T15:21:43;20.10;98.80
3275;DHT22;1649;53.672;10.064;2022-09-13T15:24:20;20.10;98.90
3275;DHT22;1649;53.672;10.064;2022-09-13T15:26:47;20.00;98.40
3275;DHT22;1649;53.672;10.064;2022-09-13T15:29:17;20.00;98.50
3275;DHT22;1649;53.672;10.064;2022-09-13T15:31:43;19.90;99.40
3275;DHT22;1649;53.672;10.064;2022-09-13T15:34:21;19.80;99.20
3275;DHT22;1649;53.672;10.064;2022-09-13T15:39:26;19.90;99.90
3275;DHT22;1649;53.672;10.064;2022-09-13T15:41:59;20.00;99.90
3275;DHT22;1649;53.672;10.064;2022-09-13T15:44:26;19.90;99.90
3275;DHT22;1649;53.672;10.064;2022-09-13T15:46:54;19.70;99.90
3275;DHT22;1649;53.672;10.064;2022-09-13T15:49:22;19.70;99.90
3275;DHT22;1649;53.672;10.064;2022-09-13T15:51:56;19.40;99.90
3275;DHT22;1649;53.672;10.064;2022-09-13T15:54:22;19.30;99.90
3275;DHT22;1649;53.672;10.064;2022-09-13T15:56:49;19.20;99.90
3275;DHT22;1649;53.672;10.064;2022-09-13T15:59:20;19.10;99.90
3275;DHT22;1649;53.672;10.064;2022-09-13T16:01:49;18.90;99.90
3275;DHT22;1649;53.672;10.064;2022-09-13T16:04:16;18.90;99.90
3275;DHT22;1649;53.672;10.064;2022-09-13T16:06:42;19.00;99.90
3275;DHT22;1649;53.672;10.064;2022-09-13T16:09:22;18.90;99.90
3275;DHT22;1649;53.672;10.064;2022-09-13T16:11:49;18.80;99.90
3275;DHT22;1649;53.672;10.064;2022-09-13T16:14:17;18.60;99.90
3275;DHT22;1649;53.672;10.064;2022-09-13T16:16:44;18.60;99.90
3275;DHT22;1649;53.672;10.064;2022-09-13T16:19:14;18.50;99.90
3275;DHT22;1649;53.672;10.064;2022-09-13T16:21:40;18.40;99.90
3275;DHT22;1649;53.672;10.064;2022-09-13T16:24:05;18.20;99.90
3275;DHT22;1649;53.672;10.064;2022-09-13T16:26:31;18.20;99.90
3275;DHT22;1649;53.672;10.064;2022-09-13T16:28:58;18.10;99.90
3275;DHT22;1649;53.672;10.064;2022-09-13T16:31:23;18.00;99.90
3275;DHT22;1649;53.672;10.064;2022-09-13T16:33:49;18.00;99.90
3275;DHT22;1649;53.672;10.064;2022-09-13T16:36:14;17.90;99.90
3275;DHT22;1649;53.672;10.064;2022-09-13T16:38:40;17.90;99.90
3275;DHT22;1649;53.672;10.064;2022-09-13T16:41:06;17.90;99.90
3275;DHT22;1649;53.672;10.064;2022-09-13T16:43:32;17.80;99.90
3275;DHT22;1649;53.672;10.064;2022-09-13T16:45:59;17.90;99.90
3275;DHT22;1649;53.672;10.064;2022-09-13T16:48:29;17.90;99.90
3275;DHT22;1649;53.672;10.064;2022-09-13T16:51:01;17.80;99.90
3275;DHT22;1649;53.672;10.064;2022-09-13T16:53:26;17.80;99.90
3275;DHT22;1649;53.672;10.064;2022-09-13T16:56:10;17.80;99.90
3275;DHT22;1649;53.672;10.064;2022-09-13T16:58:41;17.80;99.90
3275;DHT22;1649;53.672;10.064;2022-09-13T17:01:10;17.80;99.90
3275;DHT22;1649;53.672;10.064;2022-09-13T17:03:36;17.80;99.90
3275;DHT22;1649;53.672;10.064;2022-09-13T17:06:05;17.80;99.90
3275;DHT22;1649;53.672;10.064;2022-09-13T17:08:31;17.80;99.90
3275;DHT22;1649;53.672;10.064;2022-09-13T17:10:58;17.70;99.90
3275;DHT22;1649;53.672;10.064;2022-09-13T17:13:23;17.70;99.90
3275;DHT22;1649;53.672;10.064;2022-09-13T17:15:49;17.50;99.90
3275;DHT22;1649;53.672;10.064;2022-09-13T17:18:15;17.60;99.90
3275;DHT22;1649;53.672;10.064;2022-09-13T17:20:48;17.50;99.90
3275;DHT22;1649;53.672;10.064;2022-09-13T17:23:14;17.40;99.90
3275;DHT22;1649;53.672;10.064;2022-09-13T17:25:45;17.40;99.90
3275;DHT22;1649;53.672;10.064;2022-09-13T17:28:12;17.30;99.90
3275;DHT22;1649;53.672;10.064;2022-09-13T17:30:37;17.20;99.90
3275;DHT22;1649;53.672;10.064;2022-09-13T17:33:03;17.20;99.90
3275;DHT22;1649;53.672;10.064;2022-09-13T17:35:32;17.20;99.90
3275;DHT22;1649;53.672;10.064;2022-09-13T17:37:59;17.20;99.90
3275;DHT22;1649;53.672;10.064;2022-09-13T17:40:26;17.10;99.90
3275;DHT22;1649;53.672;10.064;2022-09-13T17:42:53;17.10;99.90
3275;DHT22;1649;53.672;10.064;2022-09-13T17:45:18;17.10;99.90
3275;DHT22;1649;53.672;10.064;2022-09-13T17:47:45;17.10;99.90
3275;DHT22;1649;53.672;10.064;2022-09-13T17:50:11;17.10;99.90
3275;DHT22;1649;53.672;10.064;2022-09-13T17:52:37;17.10;99.90
3275;DHT22;1649;53.672;10.064;2022-09-13T17:55:03;17.10;99.90
3275;DHT22;1649;53.672;10.064;2022-09-13T17:57:29;17.00;99.90
3275;DHT22;1649;53.672;10.064;2022-09-13T17:59:54;17.00;99.90
3275;DHT22;1649;53.672;10.064;2022-09-13T18:02:21;17.00;99.90
3275;DHT22;1649;53.672;10.064;2022-09-13T18:04:50;17.00;99.90
3275;DHT22;1649;53.672;10.064;2022-09-13T18:07:16;16.90;99.90
3275;DHT22;1649;53.672;10.064;2022-09-13T18:09:42;17.00;99.90
3275;DHT22;1649;53.672;10.064;2022-09-13T18:12:08;17.00;99.90
3275;DHT22;1649;53.672;10.064;2022-09-13T18:14:34;17.00;99.90
3275;DHT22;1649;53.672;10.064;2022-09-13T18:16:59;17.00;99.90
3275;DHT22;1649;53.672;10.064;2022-09-13T18:19:25;17.00;99.90
3275;DHT22;1649;53.672;10.064;2022-09-13T18:21:52;17.00;99.90
3275;DHT22;1649;53.672;10.064;2022-09-13T18:24:17;17.00;99.90
3275;DHT22;1649;53.672;10.064;2022-09-13T18:26:42;17.00;99.90
3275;DHT22;1649;53.672;10.064;2022-09-13T18:29:12;16.90;99.90
3275;DHT22;1649;53.672;10.064;2022-09-13T18:31:39;16.90;99.90
3275;DHT22;1649;53.672;10.064;2022-09-13T18:34:08;16.90;99.90
3275;DHT22;1649;53.672;10.064;2022-09-13T18:36:35;16.90;99.90
3275;DHT22;1649;53.672;10.064;2022-09-13T18:39:02;16.90;99.90
3275;DHT22;1649;53.672;10.064;2022-09-13T18:41:35;16.80;99.90
3275;DHT22;1649;53.672;10.064;2022-09-13T18:44:01;16.70;99.90
3275;DHT22;1649;53.672;10.064;2022-09-13T18:46:29;16.60;99.90